Madison, Kansas
Current Conditions -  °F | °C
As of 6:20 AM on Friday 24 Oct 2014 (Local Time) from KEMP Reporting Station
Haze Haze  
Wind Chill: 56°   Ceiling: 200
Heat Index: 56°   Visibility: 1.7mi
Dew Point: 56°   Wind: 13mph
Humidity: 100%   Direction: 180°S
Pressure: 30.05"   Gusts: NA
Location:  38.14°N, 96.14°W
Report Text: KEMP 241120Z AUTO 18011KT 1 3/4SM BR OVC002 13/13 A3005 RMK AO2 T01330133
Loading
Personal Weather Stations






























Interactive Weather Map
Tropical Storm Tracking
New forecast layout! Learn more

10-Day Weather Forecast

Advertisements
Track Severe Weather on mobile